• Join FlightAware (Why Join?)
  • Login
  • US Flag 
02:05AM EST


 

Airport Tracker/Info


-or-


 

Live Flight TrackerFlight Track Log ✈ AAL1292 ✈ 29-Apr-2013 ✈ KDFW - KBNA

Flight Track Log - Related Links

Times and Time Zones

All times are in EDT time to prevent confusion due to time zone crossing. See the AAL1292 flight status page for this flight to view local times or setup timezone preferences in your user account.

Time Position Orientation Groundspeed Altitude Reporting Facility
EDT Latitude Longitude Course Direction KTS MPH feet Rate Location/Type
03:53PM 32.8833 -97.0333 180° South 141 162 1,600  Level Dallas / Fort Worth TRACON
03:53PM 32.8500 -97.0333 180° South 190 219 2,500 2,160 Climbing Dallas / Fort Worth TRACON
03:54PM 32.8000 -97.0000 151° Southeast 219 252 4,900 2,340 Climbing Dallas / Fort Worth TRACON
03:55PM 32.7667 -96.9500 128° Southeast 251 289 7,000 2,400 Climbing Dallas / Fort Worth TRACON
03:56PM 32.8000 -96.8667 65° Northeast 286 329 9,700 2,220 Climbing Dallas / Fort Worth TRACON
03:57PM 32.8333 -96.7500 71° East 336 387 11,700 2,220 Climbing Dallas / Fort Worth TRACON
03:59PM 32.8872 -96.5994 67° East 387 445 15,400 2,400 Climbing Fort Worth Center
04:00PM 32.9197 -96.4903 70° East 382 440 17,700 2,400 Climbing Fort Worth Center
04:01PM 32.9625 -96.3561 69° East 387 445 20,200 2,160 Climbing Fort Worth Center
04:02PM 32.9844 -96.2394 77° East 387 445 22,100 1,980 Climbing Fort Worth Center
04:03PM 33.0039 -96.0881 81° East 409 471 24,200 1,800 Climbing Fort Worth Center
04:04PM 33.0214 -95.9642 80° East 420 483 25,700 1,500 Climbing Fort Worth Center
04:05PM 33.0422 -95.8050 81° East 430 495 27,300 1,500 Climbing Fort Worth Center
04:06PM 33.0594 -95.6758 81° East 435 501 28,800 1,500 Climbing Fort Worth Center
04:07PM 33.0822 -95.5292 79° East 442 509 30,400 1,380 Climbing Fort Worth Center
04:08PM 33.1239 -95.3844 71° East 442 509 31,600 1,320 Climbing Fort Worth Center
04:09PM 33.1694 -95.2419 69° East 452 520 33,100 1,200 Climbing Fort Worth Center
04:10PM 33.2089 -95.1069 71° East 446 513 34,100 900 Climbing Fort Worth Center
04:11PM 33.2522 -94.9667 70° East 446 513 35,000 420 Climbing Fort Worth Center
04:12PM 33.2911 -94.8289 71° East 446 513 35,000  Level Fort Worth Center
04:13PM 33.3361 -94.6883 69° East 446 513 35,000  Level Fort Worth Center
04:14PM 33.3769 -94.5503 70° East 441 507 35,000  Level Fort Worth Center
04:15PM 33.4156 -94.4147 71° East 435 501 35,000  Level Fort Worth Center
04:16PM 33.4558 -94.2764 71° East 435 501 35,000  Level Fort Worth Center
04:17PM 33.4983 -94.1356 70° East 435 501 35,000  Level Fort Worth Center
04:18PM 33.5489 -93.9964 66° East 435 501 35,000  Level Fort Worth Center
04:20PM 33.6575 -93.7103 65° Northeast 440 506 35,000  Level Fort Worth Center
04:21PM 33.7097 -93.5733 65° Northeast 445 512 35,000  Level Fort Worth Center
04:22PM 33.7569 -93.4478 66° East 434 499 35,000  Level Memphis Center
04:23PM 33.8100 -93.3147 64° Northeast 434 499 35,000  Level Memphis Center
04:24PM 33.8614 -93.1789 65° Northeast 434 499 35,000  Level Memphis Center
04:25PM 33.9100 -93.0478 66° East 434 499 35,000  Level Memphis Center
04:26PM 33.9628 -92.9167 64° Northeast 434 499 35,000  Level Memphis Center
04:27PM 34.0114 -92.7828 66° East 434 499 35,000  Level Memphis Center
04:28PM 34.0642 -92.6414 66° East 434 499 35,000  Level Memphis Center
04:29PM 34.1167 -92.5097 64° Northeast 434 499 35,000  Level Memphis Center
04:30PM 34.1647 -92.3756 67° East 434 499 35,000  Level Memphis Center
04:31PM 34.2150 -92.2436 65° Northeast 434 499 35,000  Level Memphis Center
04:32PM 34.2628 -92.1114 66° East 434 499 35,000  Level Memphis Center
04:33PM 34.3064 -91.9739 69° East 434 499 35,000  Level Memphis Center
04:34PM 34.3558 -91.8414 66° East 434 499 35,000  Level Memphis Center
04:35PM 34.4056 -91.7064 66° East 434 499 35,000  Level Memphis Center
04:36PM 34.4528 -91.5736 67° East 434 499 35,000  Level Memphis Center
04:37PM 34.5061 -91.4408 64° Northeast 434 499 35,000  Level Memphis Center
04:38PM 34.5531 -91.3053 67° East 434 499 35,000  Level Memphis Center
04:39PM 34.6000 -91.1669 68° East 434 499 35,000  Level Memphis Center
04:40PM 34.6489 -91.0361 66° East 435 501 35,000  Level Memphis Center
04:41PM 34.6953 -90.8978 68° East 436 502 35,000  Level Memphis Center
04:42PM 34.7375 -90.7767 67° East 431 496 35,000  Level Memphis Center
04:43PM 34.7881 -90.6403 66° East 436 502 35,000  Level Memphis Center
04:44PM 34.8361 -90.5064 66° East 436 502 35,000  Level Memphis Center
04:45PM 34.8842 -90.3697 67° East 436 502 35,000  Level Memphis Center
04:46PM 34.9322 -90.2306 67° East 436 502 35,000  Level Memphis Center
04:47PM 34.9861 -90.0808 66° East 436 502 35,000  Level Memphis Center
04:48PM 35.0339 -89.9461 67° East 436 502 35,000  Level Memphis Center
04:49PM 35.0792 -89.8039 69° East 443 510 35,000  Level Memphis Center
04:50PM 35.1264 -89.6639 68° East 443 510 35,000  Level Memphis Center
04:51PM 35.1694 -89.5264 69° East 438 504 35,000  Level Memphis Center
04:52PM 35.2103 -89.4042 68° East 432 497 35,000 -60 Level Memphis Center
04:53PM 35.2550 -89.2689 68° East 432 497 34,900 -840 Descending Memphis Center
04:54PM 35.2994 -89.1308 68° East 432 497 33,400 -1,500 Descending Memphis Center
04:55PM 35.3461 -88.9928 67° East 432 497 31,900 -1,500 Descending Memphis Center
04:56PM 35.3883 -88.8569 69° East 432 497 30,400 -1,920 Descending Memphis Center
04:57PM 35.4383 -88.7006 69° East 432 497 28,100 -2,160 Descending Memphis Center
04:58PM 35.4864 -88.5569 68° East 437 503 26,100 -1,980 Descending Memphis Center
04:59PM 35.5303 -88.4131 69° East 437 503 24,200 -1,860 Descending Memphis Center
05:00PM 35.5739 -88.2767 69° East 437 503 22,400 -1,560 Descending Memphis Center
05:01PM 35.6117 -88.1686 67° East 427 491 21,100 -1,260 Descending Memphis Center
05:02PM 35.6589 -88.0167 69° East 402 463 19,900 -1,260 Descending Memphis Center
05:03PM 35.6942 -87.9006 69° East 402 463 18,600 -1,500 Descending Memphis Center
05:04PM 35.7353 -87.7714 69° East 394 453 17,000 -1,800 Descending Memphis Center
05:05PM 35.7744 -87.6422 69° East 394 453 15,000 -2,040 Descending Memphis Center
05:06PM 35.8133 -87.5206 68° East 387 445 13,000 -2,040 Descending Memphis Center
05:07PM 35.8525 -87.4067 67° East 367 422 11,000 -1,500 Descending Memphis Center
05:08PM 35.8914 -87.3003 66° East 343 395 10,000 -780 Descending Memphis Center
05:09PM 35.9139 -87.1994 75° East 316 364 9,500 -780 Descending Memphis Center
05:10PM 35.9383 -87.0908 74° East 298 343 8,500 -1,260 Descending Memphis Center
05:11PM 35.9608 -87.0000 73° East 280 322 7,000 -1,860 Descending Memphis Center
05:12PM 35.9817 -86.9172 73° East 268 308 4,800 -1,920 Descending Memphis Center
05:13PM 36.0000 -86.8369 74° East 247 284 3,200 -1,620 Descending Memphis Center